sensor_id;sensor_type;location;lat;lon;timestamp;pressure;altitude;pressure_sealevel;temperature;humidity
19845;BME280;10083;51.038;7.012;2023-05-24T00:00:28;104377.09;;;10.41;100.00
19845;BME280;10083;51.038;7.012;2023-05-24T00:02:55;104397.75;;;10.44;100.00
19845;BME280;10083;51.038;7.012;2023-05-24T00:05:24;104413.66;;;10.39;100.00
19845;BME280;10083;51.038;7.012;2023-05-24T00:07:52;104432.59;;;10.44;100.00
19845;BME280;10083;51.038;7.012;2023-05-24T00:10:20;104456.72;;;10.46;100.00
19845;BME280;10083;51.038;7.012;2023-05-24T00:12:47;104476.69;;;10.30;100.00
19845;BME280;10083;51.038;7.012;2023-05-24T00:15:30;104474.44;;;10.18;100.00
19845;BME280;10083;51.038;7.012;2023-05-24T00:17:57;104490.13;;;10.31;100.00
19845;BME280;10083;51.038;7.012;2023-05-24T00:20:25;104500.56;;;10.24;100.00
19845;BME280;10083;51.038;7.012;2023-05-24T00:22:53;104513.00;;;10.22;100.00
19845;BME280;10083;51.038;7.012;2023-05-24T00:25:43;104536.63;;;10.11;100.00
19845;BME280;10083;51.038;7.012;2023-05-24T00:28:10;104546.41;;;10.09;100.00
19845;BME280;10083;51.038;7.012;2023-05-24T00:30:40;104573.88;;;10.05;100.00
19845;BME280;10083;51.038;7.012;2023-05-24T00:33:07;104585.31;;;10.01;100.00
19845;BME280;10083;51.038;7.012;2023-05-24T00:35:35;104606.38;;;10.14;100.00
19845;BME280;10083;51.038;7.012;2023-05-24T00:38:04;104611.59;;;9.89;100.00
19845;BME280;10083;51.038;7.012;2023-05-24T00:40:31;104623.94;;;9.85;100.00
19845;BME280;10083;51.038;7.012;2023-05-24T00:42:58;104637.41;;;9.87;100.00
19845;BME280;10083;51.038;7.012;2023-05-24T00:45:26;104642.41;;;9.79;100.00
19845;BME280;10083;51.038;7.012;2023-05-24T00:47:53;104648.16;;;9.68;100.00
19845;BME280;10083;51.038;7.012;2023-05-24T00:50:21;104656.84;;;9.62;100.00
19845;BME280;10083;51.038;7.012;2023-05-24T00:52:49;104669.75;;;9.51;100.00
19845;BME280;10083;51.038;7.012;2023-05-24T00:55:19;104669.47;;;9.45;100.00
19845;BME280;10083;51.038;7.012;2023-05-24T00:57:47;104673.88;;;9.43;100.00
19845;BME280;10083;51.038;7.012;2023-05-24T01:00:21;104694.91;;;9.36;100.00
19845;BME280;10083;51.038;7.012;2023-05-24T01:02:49;104705.25;;;9.28;100.00
19845;BME280;10083;51.038;7.012;2023-05-24T01:05:16;104730.75;;;9.20;100.00
19845;BME280;10083;51.038;7.012;2023-05-24T01:07:52;104749.34;;;9.17;100.00
19845;BME280;10083;51.038;7.012;2023-05-24T01:10:33;104760.22;;;9.02;100.00
19845;BME280;10083;51.038;7.012;2023-05-24T01:13:17;104765.19;;;8.95;100.00
19845;BME280;10083;51.038;7.012;2023-05-24T01:15:58;104780.78;;;8.86;100.00
19845;BME280;10083;51.038;7.012;2023-05-24T01:18:30;104798.34;;;8.81;100.00
19845;BME280;10083;51.038;7.012;2023-05-24T01:21:15;104836.38;;;8.75;100.00
19845;BME280;10083;51.038;7.012;2023-05-24T01:23:54;104854.84;;;8.71;100.00
19845;BME280;10083;51.038;7.012;2023-05-24T01:27:05;104892.22;;;8.69;100.00
19845;BME280;10083;51.038;7.012;2023-05-24T01:29:34;104931.72;;;8.58;100.00
19845;BME280;10083;51.038;7.012;2023-05-24T01:32:03;104965.88;;;8.64;100.00
19845;BME280;10083;51.038;7.012;2023-05-24T01:34:30;105017.75;;;8.85;100.00
19845;BME280;10083;51.038;7.012;2023-05-24T01:36:58;105053.94;;;8.95;100.00
19845;BME280;10083;51.038;7.012;2023-05-24T01:39:27;105084.75;;;8.88;100.00
19845;BME280;10083;51.038;7.012;2023-05-24T01:42:09;105105.03;;;9.01;100.00
19845;BME280;10083;51.038;7.012;2023-05-24T01:44:41;105132.53;;;8.98;100.00
19845;BME280;10083;51.038;7.012;2023-05-24T01:47:16;105151.16;;;8.97;100.00
19845;BME280;10083;51.038;7.012;2023-05-24T01:49:49;105151.75;;;8.91;100.00
19845;BME280;10083;51.038;7.012;2023-05-24T01:52:30;105154.19;;;8.87;100.00
19845;BME280;10083;51.038;7.012;2023-05-24T01:55:02;105158.50;;;8.85;100.00
19845;BME280;10083;51.038;7.012;2023-05-24T01:57:33;105154.66;;;8.63;100.00
19845;BME280;10083;51.038;7.012;2023-05-24T02:00:03;105147.72;;;8.51;100.00
19845;BME280;10083;51.038;7.012;2023-05-24T02:02:38;105154.28;;;8.41;100.00
19845;BME280;10083;51.038;7.012;2023-05-24T02:05:06;105154.03;;;8.37;100.00
19845;BME280;10083;51.038;7.012;2023-05-24T02:07:33;105168.66;;;8.29;100.00
19845;BME280;10083;51.038;7.012;2023-05-24T02:10:02;105174.50;;;8.22;100.00
19845;BME280;10083;51.038;7.012;2023-05-24T02:12:30;105180.56;;;8.19;100.00
19845;BME280;10083;51.038;7.012;2023-05-24T02:15:10;105187.06;;;8.08;100.00
19845;BME280;10083;51.038;7.012;2023-05-24T02:17:39;105212.06;;;8.10;100.00
19845;BME280;10083;51.038;7.012;2023-05-24T02:20:08;105238.97;;;7.98;100.00
19845;BME280;10083;51.038;7.012;2023-05-24T02:22:38;105271.81;;;7.97;100.00
19845;BME280;10083;51.038;7.012;2023-05-24T02:25:06;105286.94;;;7.82;100.00
19845;BME280;10083;51.038;7.012;2023-05-24T02:27:36;105298.16;;;7.77;100.00
19845;BME280;10083;51.038;7.012;2023-05-24T02:30:05;105316.19;;;7.81;100.00
19845;BME280;10083;51.038;7.012;2023-05-24T02:32:42;105330.34;;;7.80;100.00
19845;BME280;10083;51.038;7.012;2023-05-24T02:35:09;105366.06;;;7.82;100.00
19845;BME280;10083;51.038;7.012;2023-05-24T02:37:44;105377.81;;;7.70;100.00
19845;BME280;10083;51.038;7.012;2023-05-24T02:40:11;105388.09;;;7.64;100.00
19845;BME280;10083;51.038;7.012;2023-05-24T02:42:38;105413.69;;;7.61;100.00
19845;BME280;10083;51.038;7.012;2023-05-24T02:45:06;105450.88;;;7.72;100.00
19845;BME280;10083;51.038;7.012;2023-05-24T02:47:35;105508.94;;;7.90;100.00
19845;BME280;10083;51.038;7.012;2023-05-24T02:50:05;105514.94;;;7.59;100.00
19845;BME280;10083;51.038;7.012;2023-05-24T02:52:40;105491.13;;;7.62;100.00
19845;BME280;10083;51.038;7.012;2023-05-24T02:55:08;105515.91;;;7.74;100.00
19845;BME280;10083;51.038;7.012;2023-05-24T02:57:40;105466.72;;;7.56;100.00
19845;BME280;10083;51.038;7.012;2023-05-24T03:00:08;105411.97;;;7.48;100.00
19845;BME280;10083;51.038;7.012;2023-05-24T03:02:47;105303.13;;;7.43;100.00
19845;BME280;10083;51.038;7.012;2023-05-24T03:05:17;105304.69;;;7.39;100.00
19845;BME280;10083;51.038;7.012;2023-05-24T03:07:45;105329.50;;;7.38;100.00
19845;BME280;10083;51.038;7.012;2023-05-24T03:10:12;105340.88;;;7.36;100.00
19845;BME280;10083;51.038;7.012;2023-05-24T03:12:45;105328.78;;;7.13;100.00
19845;BME280;10083;51.038;7.012;2023-05-24T03:15:12;105323.41;;;7.26;100.00
19845;BME280;10083;51.038;7.012;2023-05-24T03:17:44;105317.66;;;7.20;100.00
19845;BME280;10083;51.038;7.012;2023-05-24T03:20:11;105303.31;;;7.18;100.00
19845;BME280;10083;51.038;7.012;2023-05-24T03:22:40;105306.41;;;7.11;100.00
19845;BME280;10083;51.038;7.012;2023-05-24T03:25:07;105299.53;;;7.14;100.00
19845;BME280;10083;51.038;7.012;2023-05-24T03:27:35;105280.69;;;7.11;100.00
19845;BME280;10083;51.038;7.012;2023-05-24T03:30:03;105256.00;;;7.01;100.00
19845;BME280;10083;51.038;7.012;2023-05-24T03:32:35;105295.75;;;7.11;100.00
19845;BME280;10083;51.038;7.012;2023-05-24T03:35:08;105305.13;;;7.04;100.00
19845;BME280;10083;51.038;7.012;2023-05-24T03:37:36;105311.94;;;7.14;100.00
19845;BME280;10083;51.038;7.012;2023-05-24T03:40:06;105321.94;;;7.03;100.00
19845;BME280;10083;51.038;7.012;2023-05-24T03:43:11;105361.31;;;6.94;100.00
19845;BME280;10083;51.038;7.012;2023-05-24T03:45:45;105351.06;;;7.00;100.00
19845;BME280;10083;51.038;7.012;2023-05-24T03:48:19;105368.88;;;7.01;100.00
19845;BME280;10083;51.038;7.012;2023-05-24T03:50:46;105400.53;;;7.10;100.00
19845;BME280;10083;51.038;7.012;2023-05-24T03:53:13;105426.69;;;7.15;100.00
19845;BME280;10083;51.038;7.012;2023-05-24T03:55:42;105454.16;;;7.14;100.00
19845;BME280;10083;51.038;7.012;2023-05-24T03:58:30;105448.72;;;7.13;100.00
19845;BME280;10083;51.038;7.012;2023-05-24T04:00:57;105457.13;;;7.19;100.00
19845;BME280;10083;51.038;7.012;2023-05-24T04:03:26;105467.47;;;7.14;100.00
19845;BME280;10083;51.038;7.012;2023-05-24T04:05:54;105480.19;;;7.18;100.00
19845;BME280;10083;51.038;7.012;2023-05-24T04:08:21;105476.00;;;7.22;100.00
19845;BME280;10083;51.038;7.012;2023-05-24T04:10:52;105526.66;;;7.35;100.00
19845;BME280;10083;51.038;7.012;2023-05-24T04:13:24;105542.84;;;7.51;100.00
19845;BME280;10083;51.038;7.012;2023-05-24T04:15:51;105586.34;;;7.63;100.00
19845;BME280;10083;51.038;7.012;2023-05-24T04:18:18;105597.13;;;7.65;100.00
19845;BME280;10083;51.038;7.012;2023-05-24T04:20:54;105583.69;;;7.63;100.00
19845;BME280;10083;51.038;7.012;2023-05-24T04:23:21;105566.13;;;7.67;100.00
19845;BME280;10083;51.038;7.012;2023-05-24T04:25:48;105564.38;;;7.67;100.00
19845;BME280;10083;51.038;7.012;2023-05-24T04:28:17;105571.78;;;7.71;100.00
19845;BME280;10083;51.038;7.012;2023-05-24T04:30:47;105559.53;;;7.75;100.00
19845;BME280;10083;51.038;7.012;2023-05-24T04:33:14;105569.81;;;7.82;100.00
19845;BME280;10083;51.038;7.012;2023-05-24T04:35:43;105563.56;;;7.82;100.00
19845;BME280;10083;51.038;7.012;2023-05-24T04:38:12;105562.00;;;7.85;100.00
19845;BME280;10083;51.038;7.012;2023-05-24T04:40:40;105556.78;;;7.87;100.00
19845;BME280;10083;51.038;7.012;2023-05-24T04:43:07;105578.94;;;7.99;100.00
19845;BME280;10083;51.038;7.012;2023-05-24T04:45:38;105590.19;;;8.08;100.00
19845;BME280;10083;51.038;7.012;2023-05-24T04:48:06;105618.00;;;8.25;100.00
19845;BME280;10083;51.038;7.012;2023-05-24T04:50:35;105641.59;;;8.45;100.00
19845;BME280;10083;51.038;7.012;2023-05-24T04:53:02;105650.69;;;8.61;100.00
19845;BME280;10083;51.038;7.012;2023-05-24T04:55:31;105647.44;;;8.80;100.00
19845;BME280;10083;51.038;7.012;2023-05-24T04:57:58;105638.06;;;8.87;100.00
19845;BME280;10083;51.038;7.012;2023-05-24T05:00:30;105593.81;;;8.92;100.00
19845;BME280;10083;51.038;7.012;2023-05-24T05:02:59;105556.75;;;8.98;100.00
19845;BME280;10083;51.038;7.012;2023-05-24T05:05:26;105504.63;;;9.06;100.00
19845;BME280;10083;51.038;7.012;2023-05-24T05:07:54;105464.06;;;9.13;100.00
19845;BME280;10083;51.038;7.012;2023-05-24T05:10:22;105441.63;;;9.26;100.00
19845;BME280;10083;51.038;7.012;2023-05-24T05:12:50;105431.09;;;9.29;100.00
19845;BME280;10083;51.038;7.012;2023-05-24T05:15:20;105397.25;;;9.45;100.00
19845;BME280;10083;51.038;7.012;2023-05-24T05:17:48;105364.84;;;9.56;100.00
19845;BME280;10083;51.038;7.012;2023-05-24T05:20:17;105346.59;;;9.65;100.00
19845;BME280;10083;51.038;7.012;2023-05-24T05:22:47;105312.94;;;9.86;100.00
19845;BME280;10083;51.038;7.012;2023-05-24T05:25:27;105251.50;;;9.89;100.00
19845;BME280;10083;51.038;7.012;2023-05-24T05:27:55;105205.69;;;9.83;100.00
19845;BME280;10083;51.038;7.012;2023-05-24T05:30:22;105159.97;;;9.96;100.00
19845;BME280;10083;51.038;7.012;2023-05-24T05:32:49;105128.25;;;10.05;100.00
19845;BME280;10083;51.038;7.012;2023-05-24T05:35:24;105076.16;;;10.16;100.00
19845;BME280;10083;51.038;7.012;2023-05-24T05:37:51;105030.78;;;10.38;100.00
19845;BME280;10083;51.038;7.012;2023-05-24T05:40:19;104974.56;;;10.40;100.00
19845;BME280;10083;51.038;7.012;2023-05-24T05:42:46;104903.59;;;10.30;100.00
19845;BME280;10083;51.038;7.012;2023-05-24T05:45:14;104806.34;;;10.33;100.00
19845;BME280;10083;51.038;7.012;2023-05-24T05:47:41;104759.63;;;10.47;100.00
19845;BME280;10083;51.038;7.012;2023-05-24T05:50:11;104684.69;;;10.50;100.00
19845;BME280;10083;51.038;7.012;2023-05-24T05:52:40;104637.56;;;10.55;100.00
19845;BME280;10083;51.038;7.012;2023-05-24T05:55:16;104594.91;;;10.61;100.00
19845;BME280;10083;51.038;7.012;2023-05-24T05:57:43;104550.22;;;10.62;100.00
19845;BME280;10083;51.038;7.012;2023-05-24T06:00:13;104542.34;;;10.65;100.00
19845;BME280;10083;51.038;7.012;2023-05-24T06:02:40;104520.03;;;10.66;100.00
19845;BME280;10083;51.038;7.012;2023-05-24T06:05:08;104513.81;;;10.92;100.00
19845;BME280;10083;51.038;7.012;2023-05-24T06:07:35;104560.06;;;11.10;100.00
19845;BME280;10083;51.038;7.012;2023-05-24T06:10:20;104532.06;;;11.02;100.00
19845;BME280;10083;51.038;7.012;2023-05-24T06:12:47;104554.78;;;11.37;100.00
19845;BME280;10083;51.038;7.012;2023-05-24T06:15:24;104529.88;;;11.41;100.00
19845;BME280;10083;51.038;7.012;2023-05-24T06:17:51;104484.16;;;11.38;100.00
19845;BME280;10083;51.038;7.012;2023-05-24T06:20:19;104474.50;;;11.45;100.00
19845;BME280;10083;51.038;7.012;2023-05-24T06:22:46;104439.06;;;11.55;100.00
19845;BME280;10083;51.038;7.012;2023-05-24T06:25:15;104408.31;;;11.72;100.00
19845;BME280;10083;51.038;7.012;2023-05-24T06:27:46;104421.94;;;12.08;100.00
19845;BME280;10083;51.038;7.012;2023-05-24T06:30:13;104409.59;;;12.14;100.00
19845;BME280;10083;51.038;7.012;2023-05-24T06:32:40;104415.50;;;12.33;100.00
19845;BME280;10083;51.038;7.012;2023-05-24T06:35:08;104395.81;;;12.34;100.00
19845;BME280;10083;51.038;7.012;2023-05-24T06:37:35;104390.09;;;12.53;100.00
19845;BME280;10083;51.038;7.012;2023-05-24T06:40:04;104396.66;;;12.64;100.00
19845;BME280;10083;51.038;7.012;2023-05-24T06:42:33;104399.72;;;12.78;100.00
19845;BME280;10083;51.038;7.012;2023-05-24T06:45:10;104407.69;;;13.09;100.00
19845;BME280;10083;51.038;7.012;2023-05-24T06:47:38;104419.03;;;13.32;100.00
19845;BME280;10083;51.038;7.012;2023-05-24T06:50:13;104416.78;;;13.50;100.00
19845;BME280;10083;51.038;7.012;2023-05-24T06:52:40;104415.31;;;13.25;100.00
19845;BME280;10083;51.038;7.012;2023-05-24T06:55:14;104437.16;;;13.76;100.00
19845;BME280;10083;51.038;7.012;2023-05-24T06:57:41;104461.78;;;13.54;100.00
19845;BME280;10083;51.038;7.012;2023-05-24T07:00:10;104478.44;;;13.75;100.00
19845;BME280;10083;51.038;7.012;2023-05-24T07:02:37;104494.94;;;13.51;100.00
19845;BME280;10083;51.038;7.012;2023-05-24T07:05:06;104493.97;;;13.48;100.00
19845;BME280;10083;51.038;7.012;2023-05-24T07:07:37;104504.44;;;13.37;100.00
19845;BME280;10083;51.038;7.012;2023-05-24T07:10:05;104483.97;;;13.09;100.00
19845;BME280;10083;51.038;7.012;2023-05-24T07:12:33;104488.25;;;13.36;100.00
19845;BME280;10083;51.038;7.012;2023-05-24T07:15:14;104506.47;;;13.46;100.00
19845;BME280;10083;51.038;7.012;2023-05-24T07:17:41;104496.88;;;13.23;100.00
19845;BME280;10083;51.038;7.012;2023-05-24T07:20:09;104508.91;;;13.73;100.00
19845;BME280;10083;51.038;7.012;2023-05-24T07:22:38;104560.56;;;13.92;100.00
19845;BME280;10083;51.038;7.012;2023-05-24T07:25:08;104574.88;;;14.26;100.00
19845;BME280;10083;51.038;7.012;2023-05-24T07:27:36;104593.47;;;14.15;100.00
19845;BME280;10083;51.038;7.012;2023-05-24T07:30:04;104576.63;;;13.86;100.00
19845;BME280;10083;51.038;7.012;2023-05-24T07:32:33;104581.31;;;13.95;100.00
19845;BME280;10083;51.038;7.012;2023-05-24T07:35:00;104624.47;;;14.34;100.00
19845;BME280;10083;51.038;7.012;2023-05-24T07:37:27;104645.13;;;14.69;100.00
19845;BME280;10083;51.038;7.012;2023-05-24T07:40:00;104669.97;;;15.38;100.00
19845;BME280;10083;51.038;7.012;2023-05-24T07:42:28;104703.16;;;15.33;100.00
19845;BME280;10083;51.038;7.012;2023-05-24T07:45:03;104703.69;;;15.14;100.00
19845;BME280;10083;51.038;7.012;2023-05-24T07:47:30;104707.25;;;15.14;100.00
19845;BME280;10083;51.038;7.012;2023-05-24T07:50:02;104709.56;;;15.38;100.00
19845;BME280;10083;51.038;7.012;2023-05-24T07:52:29;104656.84;;;14.71;100.00
19845;BME280;10083;51.038;7.012;2023-05-24T07:55:03;104631.66;;;14.33;100.00
19845;BME280;10083;51.038;7.012;2023-05-24T07:57:30;104638.28;;;14.46;100.00
19845;BME280;10083;51.038;7.012;2023-05-24T08:00:03;104630.84;;;14.36;100.00
19845;BME280;10083;51.038;7.012;2023-05-24T08:02:39;104626.88;;;14.59;100.00
19845;BME280;10083;51.038;7.012;2023-05-24T08:05:08;104617.41;;;14.01;100.00
19845;BME280;10083;51.038;7.012;2023-05-24T08:07:36;104618.84;;;14.62;100.00
19845;BME280;10083;51.038;7.012;2023-05-24T08:10:12;104674.56;;;14.99;100.00
19845;BME280;10083;51.038;7.012;2023-05-24T08:12:39;104652.59;;;14.82;100.00
19845;BME280;10083;51.038;7.012;2023-05-24T08:15:24;104644.53;;;14.43;100.00
19845;BME280;10083;51.038;7.012;2023-05-24T08:17:54;104634.97;;;14.59;100.00
19845;BME280;10083;51.038;7.012;2023-05-24T08:20:23;104627.44;;;14.83;100.00
19845;BME280;10083;51.038;7.012;2023-05-24T08:22:51;104618.16;;;15.14;100.00
19845;BME280;10083;51.038;7.012;2023-05-24T08:25:24;104599.97;;;15.06;100.00
19845;BME280;10083;51.038;7.012;2023-05-24T08:27:51;104601.25;;;15.24;100.00
19845;BME280;10083;51.038;7.012;2023-05-24T08:30:18;104560.69;;;14.76;100.00
19845;BME280;10083;51.038;7.012;2023-05-24T08:32:46;104564.19;;;15.16;100.00
19845;BME280;10083;51.038;7.012;2023-05-24T08:35:13;104529.00;;;14.66;100.00
19845;BME280;10083;51.038;7.012;2023-05-24T08:37:41;104514.81;;;14.75;100.00
19845;BME280;10083;51.038;7.012;2023-05-24T08:40:27;104523.59;;;14.66;100.00
19845;BME280;10083;51.038;7.012;2023-05-24T08:42:54;104530.47;;;15.42;100.00
19845;BME280;10083;51.038;7.012;2023-05-24T08:45:25;104518.59;;;15.83;100.00
19845;BME280;10083;51.038;7.012;2023-05-24T08:47:55;104481.72;;;15.36;100.00
19845;BME280;10083;51.038;7.012;2023-05-24T08:50:23;104478.91;;;15.28;100.00
19845;BME280;10083;51.038;7.012;2023-05-24T08:52:51;104468.97;;;15.26;100.00
19845;BME280;10083;51.038;7.012;2023-05-24T08:55:21;104466.97;;;15.16;100.00
19845;BME280;10083;51.038;7.012;2023-05-24T08:57:48;104465.22;;;15.72;100.00
19845;BME280;10083;51.038;7.012;2023-05-24T09:00:16;104443.78;;;16.55;100.00
19845;BME280;10083;51.038;7.012;2023-05-24T09:02:44;104374.44;;;16.64;100.00
19845;BME280;10083;51.038;7.012;2023-05-24T09:05:16;104328.72;;;16.96;100.00
19845;BME280;10083;51.038;7.012;2023-05-24T09:07:47;104288.38;;;17.49;100.00
19845;BME280;10083;51.038;7.012;2023-05-24T09:10:19;104275.06;;;18.40;100.00
19845;BME280;10083;51.038;7.012;2023-05-24T09:12:50;104189.13;;;18.20;100.00
19845;BME280;10083;51.038;7.012;2023-05-24T09:15:25;104091.47;;;18.17;100.00
19845;BME280;10083;51.038;7.012;2023-05-24T09:17:53;104116.72;;;18.75;100.00
19845;BME280;10083;51.038;7.012;2023-05-24T09:20:23;104030.00;;;17.31;100.00
19845;BME280;10083;51.038;7.012;2023-05-24T09:22:51;104091.34;;;17.12;100.00
19845;BME280;10083;51.038;7.012;2023-05-24T09:25:28;104115.50;;;16.63;100.00
19845;BME280;10083;51.038;7.012;2023-05-24T09:27:55;104180.34;;;16.51;100.00
19845;BME280;10083;51.038;7.012;2023-05-24T09:30:29;104251.44;;;16.32;100.00
19845;BME280;10083;51.038;7.012;2023-05-24T09:32:57;104284.03;;;16.46;100.00
19845;BME280;10083;51.038;7.012;2023-05-24T09:35:27;104224.53;;;16.47;100.00
19845;BME280;10083;51.038;7.012;2023-05-24T09:37:56;104165.09;;;16.59;100.00
19845;BME280;10083;51.038;7.012;2023-05-24T09:40:28;104136.50;;;17.13;100.00
19845;BME280;10083;51.038;7.012;2023-05-24T09:43:03;104069.75;;;17.39;100.00
19845;BME280;10083;51.038;7.012;2023-05-24T09:45:43;104054.38;;;17.35;100.00
19845;BME280;10083;51.038;7.012;2023-05-24T09:48:11;104004.72;;;17.73;100.00
19845;BME280;10083;51.038;7.012;2023-05-24T09:50:58;103984.81;;;17.33;100.00
19845;BME280;10083;51.038;7.012;2023-05-24T09:53:25;104029.97;;;17.17;100.00
19845;BME280;10083;51.038;7.012;2023-05-24T09:55:54;103984.88;;;17.66;100.00
19845;BME280;10083;51.038;7.012;2023-05-24T09:58:21;103955.00;;;17.96;100.00
19845;BME280;10083;51.038;7.012;2023-05-24T10:00:49;103991.19;;;17.62;100.00
19845;BME280;10083;51.038;7.012;2023-05-24T10:03:16;104011.00;;;18.08;100.00
19845;BME280;10083;51.038;7.012;2023-05-24T10:05:45;103985.66;;;18.12;100.00
19845;BME280;10083;51.038;7.012;2023-05-24T10:08:12;103904.63;;;19.08;100.00
19845;BME280;10083;51.038;7.012;2023-05-24T10:10:46;103772.06;;;18.41;100.00
19845;BME280;10083;51.038;7.012;2023-05-24T10:13:14;103837.19;;;18.43;100.00
19845;BME280;10083;51.038;7.012;2023-05-24T10:15:43;103773.63;;;18.71;100.00
19845;BME280;10083;51.038;7.012;2023-05-24T10:18:10;103741.31;;;19.32;100.00
19845;BME280;10083;51.038;7.012;2023-05-24T10:20:37;103628.19;;;18.44;100.00
19845;BME280;10083;51.038;7.012;2023-05-24T10:23:08;103675.88;;;19.51;100.00
19845;BME280;10083;51.038;7.012;2023-05-24T10:25:49;103609.88;;;20.50;100.00
19845;BME280;10083;51.038;7.012;2023-05-24T10:28:19;103426.19;;;20.21;100.00
19845;BME280;10083;51.038;7.012;2023-05-24T10:31:07;103439.47;;;18.86;100.00
19845;BME280;10083;51.038;7.012;2023-05-24T10:33:36;103512.94;;;17.93;100.00
19845;BME280;10083;51.038;7.012;2023-05-24T10:36:06;103654.97;;;17.76;100.00
19845;BME280;10083;51.038;7.012;2023-05-24T10:38:36;103713.63;;;17.92;100.00
19845;BME280;10083;51.038;7.012;2023-05-24T10:41:07;103846.56;;;17.78;100.00
19845;BME280;10083;51.038;7.012;2023-05-24T10:43:36;103832.00;;;18.05;100.00
19845;BME280;10083;51.038;7.012;2023-05-24T10:46:07;103718.84;;;19.18;100.00
19845;BME280;10083;51.038;7.012;2023-05-24T10:48:38;103540.22;;;19.31;100.00
19845;BME280;10083;51.038;7.012;2023-05-24T10:51:32;103560.59;;;19.01;100.00
19845;BME280;10083;51.038;7.012;2023-05-24T10:54:14;103587.59;;;18.35;100.00
19845;BME280;10083;51.038;7.012;2023-05-24T10:56:45;103613.13;;;18.10;100.00
19845;BME280;10083;51.038;7.012;2023-05-24T10:59:28;103747.34;;;17.27;100.00
19845;BME280;10083;51.038;7.012;2023-05-24T11:01:58;103825.91;;;17.19;100.00
19845;BME280;10083;51.038;7.012;2023-05-24T11:04:30;103844.88;;;16.69;100.00
19845;BME280;10083;51.038;7.012;2023-05-24T11:07:00;103914.34;;;16.80;100.00
19845;BME280;10083;51.038;7.012;2023-05-24T11:09:35;103911.69;;;17.22;100.00
19845;BME280;10083;51.038;7.012;2023-05-24T11:12:03;103828.53;;;17.57;100.00
19845;BME280;10083;51.038;7.012;2023-05-24T11:14:46;103740.88;;;19.70;100.00
19845;BME280;10083;51.038;7.012;2023-05-24T11:17:14;103484.13;;;19.27;100.00
19845;BME280;10083;51.038;7.012;2023-05-24T11:19:53;103356.78;;;19.56;100.00
19845;BME280;10083;51.038;7.012;2023-05-24T11:22:22;103396.00;;;18.19;100.00
19845;BME280;10083;51.038;7.012;2023-05-24T11:24:51;103506.00;;;17.63;100.00
19845;BME280;10083;51.038;7.012;2023-05-24T11:27:24;103570.22;;;17.46;100.00
19845;BME280;10083;51.038;7.012;2023-05-24T11:29:53;103637.84;;;17.72;100.00
19845;BME280;10083;51.038;7.012;2023-05-24T11:32:21;103603.66;;;17.42;100.00
19845;BME280;10083;51.038;7.012;2023-05-24T11:34:49;103662.66;;;16.73;100.00
19845;BME280;10083;51.038;7.012;2023-05-24T11:37:16;103670.72;;;16.86;100.00
19845;BME280;10083;51.038;7.012;2023-05-24T11:39:48;103682.47;;;16.76;100.00
19845;BME280;10083;51.038;7.012;2023-05-24T11:42:22;103730.28;;;16.39;100.00
19845;BME280;10083;51.038;7.012;2023-05-24T11:44:50;103796.97;;;16.23;100.00
19845;BME280;10083;51.038;7.012;2023-05-24T11:47:20;103772.69;;;16.40;100.00
19845;BME280;10083;51.038;7.012;2023-05-24T11:49:49;103795.19;;;16.45;100.00
19845;BME280;10083;51.038;7.012;2023-05-24T11:52:16;103750.06;;;16.10;100.00
19845;BME280;10083;51.038;7.012;2023-05-24T11:54:43;103758.19;;;16.12;100.00
19845;BME280;10083;51.038;7.012;2023-05-24T11:57:13;103754.63;;;16.31;100.00
19845;BME280;10083;51.038;7.012;2023-05-24T11:59:41;103744.72;;;16.22;100.00
19845;BME280;10083;51.038;7.012;2023-05-24T12:02:08;103754.69;;;16.61;100.00
19845;BME280;10083;51.038;7.012;2023-05-24T12:04:36;103662.66;;;16.70;100.00
19845;BME280;10083;51.038;7.012;2023-05-24T12:07:10;103632.88;;;16.63;100.00
19845;BME280;10083;51.038;7.012;2023-05-24T12:09:37;103639.03;;;17.10;100.00
19845;BME280;10083;51.038;7.012;2023-05-24T12:12:10;103589.25;;;17.39;100.00
19845;BME280;10083;51.038;7.012;2023-05-24T12:14:38;103574.16;;;18.19;100.00
19845;BME280;10083;51.038;7.012;2023-05-24T12:17:13;103544.22;;;18.29;100.00
19845;BME280;10083;51.038;7.012;2023-05-24T12:19:42;103458.91;;;18.56;100.00
19845;BME280;10083;51.038;7.012;2023-05-24T12:22:09;103483.75;;;18.91;100.00
19845;BME280;10083;51.038;7.012;2023-05-24T12:24:36;103296.59;;;18.76;100.00
19845;BME280;10083;51.038;7.012;2023-05-24T12:27:04;103295.34;;;19.48;100.00
19845;BME280;10083;51.038;7.012;2023-05-24T12:29:39;103249.28;;;19.37;100.00
19845;BME280;10083;51.038;7.012;2023-05-24T12:32:07;103212.41;;;19.25;100.00
19845;BME280;10083;51.038;7.012;2023-05-24T12:34:39;103202.88;;;19.89;100.00
19845;BME280;10083;51.038;7.012;2023-05-24T12:37:08;103236.63;;;20.20;100.00
19845;BME280;10083;51.038;7.012;2023-05-24T12:39:37;103123.06;;;20.27;100.00
19845;BME280;10083;51.038;7.012;2023-05-24T12:42:07;103163.84;;;19.92;100.00
19845;BME280;10083;51.038;7.012;2023-05-24T12:44:43;103215.47;;;19.95;100.00
19845;BME280;10083;51.038;7.012;2023-05-24T12:47:10;103148.72;;;19.38;100.00
19845;BME280;10083;51.038;7.012;2023-05-24T12:49:38;103165.22;;;19.28;100.00
19845;BME280;10083;51.038;7.012;2023-05-24T12:52:05;103249.38;;;19.32;100.00
19845;BME280;10083;51.038;7.012;2023-05-24T12:54:35;103247.31;;;19.01;100.00
19845;BME280;10083;51.038;7.012;2023-05-24T12:57:02;103210.69;;;19.20;100.00
19845;BME280;10083;51.038;7.012;2023-05-24T12:59:32;103241.03;;;19.45;100.00